Data for 04/16/2018

Time Sea-Level Adjusted Pressure Absolute Pressure Temperature Relative Humidity Dew Point   
(mb) (inHg) (mb) (inHg) (C) (F) (%) (C) (F)
00:05 1008 29.77 838 24.75 9.8 49.6 41 -2.7 27.1
00:10 1008 29.77 837 24.72 9.8 49.6 41 -2.8 27
00:15 1008 29.77 837 24.72 9.8 49.7 41 -2.6 27.3
00:20 1008 29.77 837 24.72 9.7 49.4 43 -2.4 27.7
00:25 1008 29.77 837 24.72 9.6 49.3 42 -2.6 27.3
00:30 1008 29.77 837 24.72 9.6 49.3 43 -2.4 27.6
00:35 1008 29.77 837 24.72 9.5 49.1 43 -2.4 27.7
00:40 1008 29.77 837 24.72 9.3 48.8 44 -2.2 28
00:45 1008 29.77 837 24.72 9.1 48.4 45 -2.2 28
00:50 1008 29.77 837 24.72 9.1 48.4 45 -2.3 27.9
00:55 1008 29.77 837 24.72 9.1 48.4 44 -2.4 27.7
01:00 1008 29.77 837 24.72 9.2 48.5 44 -2.5 27.4
01:05 1008 29.77 837 24.72 9.2 48.5 45 -2.2 28
01:10 1008 29.77 837 24.72 9 48.1 45 -2.4 27.7
01:15 1008 29.77 837 24.72 9 48.2 45 -2.2 28
01:20 1008 29.77 837 24.72 8.8 47.8 45 -2.3 27.8
01:25 1008 29.77 837 24.72 8.8 47.8 45 -2.4 27.7
01:30 1008 29.77 837 24.72 8.7 47.6 45 -2.4 27.6
01:35 1008 29.77 837 24.72 8.7 47.7 45 -2.4 27.7
01:40 1008 29.77 837 24.72 8.6 47.5 46 -2.4 27.7
01:45 1008 29.77 837 24.72 8.6 47.4 46 -2.5 27.6
01:50 1007 29.74 837 24.72 8.7 47.7 44 -2.8 26.9
01:55 1007 29.74 836 24.69 9 48.2 43 -2.8 27
02:00 1007 29.74 836 24.69 9.2 48.5 42 -2.9 26.7
02:05 1007 29.74 836 24.69 9.1 48.3 44 -2.5 27.5
02:10 1007 29.74 836 24.69 8.7 47.7 44 -2.7 27.1
02:15 1007 29.74 836 24.69 8.7 47.7 43 -3 26.6
02:20 1007 29.74 836 24.69 8.9 47.9 44 -2.8 26.9
02:25 1007 29.74 836 24.69 8.7 47.6 44 -2.9 26.8
02:30 1007 29.74 836 24.69 8.6 47.6 44 -2.9 26.9
02:35 1007 29.74 836 24.69 8.5 47.3 45 -2.8 27
02:40 1007 29.74 836 24.69 8.5 47.3 44 -3 26.6
02:45 1006 29.71 836 24.69 8.5 47.2 45 -2.8 27
02:50 1006 29.71 836 24.69 8.3 47 45 -2.8 27
02:55 1007 29.74 836 24.69 8.3 46.9 45 -2.8 26.9
03:00 1007 29.74 836 24.69 8.2 46.8 46 -2.7 27.1
03:05 1006 29.71 836 24.69 8.1 46.5 46 -2.9 26.7
03:10 1006 29.71 836 24.69 8.2 46.7 46 -2.8 26.9
03:15 1006 29.71 835 24.66 8.2 46.7 47 -2.6 27.4
03:20 1006 29.71 835 24.66 8 46.4 47 -2.6 27.4
03:25 1006 29.71 835 24.66 7.9 46.3 47 -2.5 27.4
03:30 1006 29.71 835 24.66 7.9 46.2 47 -2.7 27.2
03:35 1006 29.71 835 24.66 7.8 46.1 47 -2.7 27.2
03:40 1006 29.71 835 24.66 7.8 46.1 46 -2.9 26.7
03:45 1006 29.71 835 24.66 7.9 46.3 46 -2.9 26.8
03:50 1006 29.71 835 24.66 7.9 46.2 47 -2.8 27
03:55 1006 29.71 835 24.66 7.9 46.1 46 -3 26.5
04:00 1006 29.71 835 24.66 7.9 46.2 46 -3 26.6
04:05 1006 29.71 835 24.66 7.9 46.2 46 -3 26.6
04:10 1006 29.71 835 24.66 7.9 46.1 46 -2.9 26.7
04:15 1006 29.71 835 24.66 7.7 45.9 47 -2.9 26.9
04:20 1005 29.68 835 24.66 7.6 45.7 47 -3.1 26.4
04:25 1005 29.68 835 24.66 7.7 45.8 47 -3 26.6
04:30 1005 29.68 835 24.66 7.6 45.7 47 -3 26.6
04:35 1005 29.68 835 24.66 7.5 45.5 47 -3 26.7
04:40 1005 29.68 835 24.66 7.4 45.4 47 -3.1 26.5
04:45 1005 29.68 834 24.63 7.4 45.4 47 -3.3 26.1
04:50 1005 29.68 834 24.63 7.6 45.6 46 -3.3 26
04:55 1005 29.68 834 24.63 7.7 45.8 45 -3.4 25.9
05:00 1005 29.68 834 24.63 7.8 46 45 -3.3 26.1
05:05 1005 29.68 834 24.63 7.7 45.9 45 -3.4 25.9
05:10 1005 29.68 834 24.63 7.7 45.8 46 -3.3 26.1
05:15 1005 29.68 834 24.63 7.5 45.5 46 -3.3 26
05:20 1005 29.68 834 24.63 7.5 45.4 47 -3.2 26.2
05:25 1005 29.68 834 24.63 7.5 45.4 46 -3.4 26
05:30 1005 29.68 834 24.63 7.4 45.3 46 -3.3 26
05:35 1005 29.68 834 24.63 7.5 45.5 45 -3.5 25.6
05:40 1005 29.68 834 24.63 7.6 45.7 45 -3.6 25.5
05:45 1005 29.68 834 24.63 7.7 45.8 45 -3.5 25.8
05:50 1005 29.68 834 24.63 7.6 45.6 46 -3.4 25.9
05:55 1005 29.68 834 24.63 7.6 45.7 44 -3.7 25.3
06:00 1005 29.68 834 24.63 7.7 45.9 44 -3.6 25.4
06:05 1005 29.68 834 24.63 7.7 45.9 45 -3.3 26
06:10 1005 29.68 834 24.63 7.6 45.7 46 -3.4 25.9
06:15 1005 29.68 834 24.63 7.7 45.8 45 -3.5 25.7
06:20 1005 29.68 835 24.66 7.8 46.1 44 -3.6 25.5
06:25 1005 29.68 835 24.66 8.1 46.5 44 -3.5 25.7
06:30 1005 29.68 835 24.66 8.3 47 43 -3.6 25.5
06:35 1005 29.68 834 24.63 8.6 47.4 42 -3.7 25.4
06:40 1005 29.68 834 24.63 8.7 47.7 40 -4 24.8
06:45 1005 29.68 834 24.63 9.1 48.4 39 -4.1 24.7
06:50 1005 29.68 834 24.63 9.4 48.9 38 -4.3 24.2
06:55 1005 29.68 834 24.63 9.6 49.3 35 -5 23.1
07:00 1005 29.68 834 24.63 9.9 49.9 35 -5 23
07:05 1005 29.68 834 24.63 10.3 50.5 33 -5.4 22.3
07:10 1005 29.68 834 24.63 11 51.8 30 -5.9 21.3
07:15 1005 29.68 834 24.63 11.5 52.6 30 -5.4 22.3
07:20 1005 29.68 834 24.63 11.4 52.5 30 -5.4 22.3
07:25 1005 29.68 834 24.63 11.7 53.1 28 -6 21.1
07:30 1005 29.68 834 24.63 12.3 54.2 26 -6.5 20.3
07:35 1005 29.68 834 24.63 13 55.4 26 -6.1 21
07:40 1005 29.68 834 24.63 13.4 56.1 26 -5.9 21.3
07:45 1005 29.68 834 24.63 13.5 56.3 24 -6.6 20.1
07:50 1005 29.68 834 24.63 14.2 57.5 23 -6.4 20.5
07:55 1005 29.68 834 24.63 14.4 58 19 -9.1 15.5
08:00 1005 29.68 834 24.63 14.8 58.6 18 -9.6 14.8
08:05 1005 29.68 834 24.63 15 59 17 -10 14.1
08:10 1005 29.68 834 24.63 15 58.9 18 -8.8 16.2
08:15 1005 29.68 834 24.63 15.2 59.4 18 -9 15.8
08:20 1005 29.68 834 24.63 15.3 59.5 17 -9.5 14.9
08:25 1004 29.65 834 24.63 15.2 59.4 16 -10.2 13.7
08:30 1004 29.65 834 24.63 15.3 59.5 17 -9.5 14.9
08:35 1004 29.65 833 24.6 15.4 59.7 17 -9.7 14.5
08:40 1004 29.65 833 24.6 15.3 59.5 17 -9.6 14.8
08:45 1004 29.65 833 24.6 15.3 59.5 18 -9.1 15.6
08:50 1004 29.65 833 24.6 15.6 60 16 -10.2 13.7
08:55 1004 29.65 833 24.6 15.6 60.1 16 -10.5 13.1
09:00 1004 29.65 833 24.6 15.5 59.9 17 -9.3 15.3
09:05 1004 29.65 833 24.6 15.6 60.1 15 -10.6 12.9
09:10 1004 29.65 833 24.6 15.6 60.2 17 -9.6 14.8
09:15 1004 29.65 833 24.6 16 60.7 15 -10.9 12.5
09:20 1004 29.65 833 24.6 15.9 60.7 15 -10.7 12.8
09:25 1004 29.65 833 24.6 15.8 60.5 16 -10.3 13.5
09:30 1004 29.65 833 24.6 16 60.7 15 -10.4 13.3
09:35 1003 29.62 833 24.6 16 60.8 14 -11.3 11.7
09:40 1003 29.62 833 24.6 15.9 60.6 14 -11.4 11.6
09:45 1003 29.62 833 24.6 15.9 60.6 15 -10.7 12.8
09:50 1003 29.62 833 24.6 16 60.8 15 -10.7 12.7
09:55 1003 29.62 833 24.6 16.2 61.1 14 -11 12.2
10:00 1003 29.62 833 24.6 16.2 61.2 15 -10.8 12.6
10:05 1003 29.62 833 24.6 16.1 61 15 -10.3 13.5
10:10 1003 29.62 832 24.57 16.1 61.1 15 -10.4 13.3
10:15 1003 29.62 833 24.6 16.2 61.1 15 -10.1 13.8
10:20 1003 29.62 833 24.6 16.2 61.2 15 -10.7 12.8
10:25 1003 29.62 832 24.57 16.2 61.1 15 -10.7 12.7
10:30 1003 29.62 832 24.57 16 60.7 15 -10.3 13.4
10:35 1004 29.65 833 24.6 16.4 61.4 15 -10.2 13.7
10:40 1003 29.62 833 24.6 16.3 61.3 15 -10.2 13.7
10:45 1003 29.62 833 24.6 16.6 62 14 -10.6 12.9
10:50 1003 29.62 833 24.6 16.6 61.9 14 -10.7 12.7
10:55 1003 29.62 833 24.6 16.6 61.9 14 -10.6 12.9
11:00 1003 29.62 832 24.57 16.7 62 14 -11.1 12.1
11:05 1003 29.62 832 24.57 16.6 62 15 -10.3 13.5
11:10 1003 29.62 832 24.57 16.3 61.3 15 -10.5 13.1
11:15 1003 29.62 832 24.57 16.3 61.3 14 -10.9 12.3
11:20 1003 29.62 832 24.57 16.7 62 14 -11.2 11.9
11:25 1003 29.62 832 24.57 16.7 62.1 15 -10 13.9
11:30 1003 29.62 832 24.57 17.2 62.9 14 -10.4 13.3
11:35 1003 29.62 832 24.57 17.2 62.9 14 -10.9 12.3
11:40 1003 29.62 832 24.57 17.2 62.9 15 -9.7 14.5
11:45 1003 29.62 832 24.57 17.3 63.1 13 -11.1 12
11:50 1003 29.62 832 24.57 16.8 62.3 14 -11 12.3
11:55 1003 29.62 832 24.57 17.1 62.9 13 -11.2 11.8
12:00 1003 29.62 832 24.57 17.2 62.9 13 -11.2 11.9
12:05 1003 29.62 832 24.57 17.2 62.9 13 -11.7 11
12:10 1003 29.62 832 24.57 16.9 62.5 14 -10.9 12.4
12:15 1003 29.62 832 24.57 16.8 62.2 15 -10 14
12:20 1003 29.62 832 24.57 16.8 62.3 15 -10.1 13.8
12:25 1003 29.62 832 24.57 16.7 62.1 15 -10.4 13.3
12:30 1003 29.62 832 24.57 16.9 62.3 16 -8.7 16.3
12:35 1003 29.62 832 24.57 17 62.6 15 -9.6 14.6
12:40 1003 29.62 832 24.57 16.7 62 16 -9.6 14.7
12:45 1003 29.62 832 24.57 16.6 61.9 15 -10 14
12:50 1003 29.62 832 24.57 16.3 61.3 16 -9.5 14.9
12:55 1003 29.62 833 24.6 16.2 61.2 16 -9.7 14.5
13:00 1003 29.62 833 24.6 16.1 61 18 -8 17.6
13:05 1003 29.62 833 24.6 16 60.8 18 -8.2 17.3
13:10 1004 29.65 833 24.6 16 60.8 19 -7.5 18.5
13:15 1005 29.68 834 24.63 15.5 59.8 33 -0.7 30.8
13:20 1005 29.68 834 24.63 13 55.3 39 -0.6 30.9
13:25 1005 29.68 834 24.63 12 53.6 40 -1 30.2
13:30 1005 29.68 834 24.63 11.6 52.9 44 -0.3 31.5
13:35 1005 29.68 834 24.63 11.2 52.1 45 -0.3 31.5
13:40 1005 29.68 834 24.63 10.8 51.4 46 -0.4 31.2
13:45 1005 29.68 835 24.66 10.5 50.8 46 -0.5 31.1
13:50 1005 29.68 835 24.66 10.1 50.2 51 0.6 33.1
13:55 1005 29.68 834 24.63 9.5 49.1 53 0.5 32.8
14:00 1006 29.71 835 24.66 9.3 48.7 55 0.8 33.4
14:05 1006 29.71 835 24.66 8.7 47.6 56 0.4 32.7
14:10 1006 29.71 835 24.66 8 46.4 58 0.3 32.5
14:15 1006 29.71 835 24.66 7.9 46.1 58 0.2 32.4
14:20 1006 29.71 835 24.66 7.8 46.1 60 0.5 32.8
14:25 1006 29.71 835 24.66 7.7 45.9 61 0.6 33.1
14:30 1006 29.71 835 24.66 7.5 45.4 63 0.9 33.5
14:35 1006 29.71 835 24.66 7.2 45 68 1.7 35
14:40 1006 29.71 835 24.66 7.1 44.7 70 2 35.7
14:45 1006 29.71 835 24.66 6.9 44.5 70 1.9 35.3
14:50 1006 29.71 835 24.66 6.7 44.1 73 2.3 36.1
14:55 1006 29.71 836 24.69 6.7 44.1 69 1.4 34.5
15:00 1007 29.74 836 24.69 6.4 43.6 69 1.2 34.1
15:05 1007 29.74 836 24.69 6.2 43.2 68 0.8 33.4
15:10 1007 29.74 836 24.69 5.7 42.3 72 1 33.8
15:15 1007 29.74 836 24.69 5.2 41.4 73 0.8 33.4
15:20 1007 29.74 836 24.69 4.6 40.4 76 0.7 33.3
15:25 1007 29.74 836 24.69 4.4 39.9 77 0.8 33.5
15:30 1007 29.74 836 24.69 4.1 39.4 78 0.6 33.1
15:35 1007 29.74 836 24.69 4.1 39.4 77 0.5 33
15:40 1007 29.74 836 24.69 4.1 39.4 79 0.8 33.4
15:45 1007 29.74 836 24.69 3.9 39 81 1 33.8
15:50 1007 29.74 836 24.69 3.7 38.6 82 0.8 33.5
15:55 1008 29.77 837 24.72 3.5 38.3 82 0.7 33.2
16:00 1008 29.77 837 24.72 3.3 38 82 0.6 33.1
16:05 1008 29.77 837 24.72 3.3 37.9 83 0.7 33.3
16:10 1008 29.77 837 24.72 3.2 37.8 84 0.8 33.4
16:15 1008 29.77 837 24.72 3.3 37.9 85 0.9 33.7
16:20 1008 29.77 837 24.72 3 37.5 84 0.6 33
16:25 1008 29.77 837 24.72 2.6 36.6 86 0.4 32.8
16:30 1008 29.77 837 24.72 2.4 36.3 86 0.3 32.6
16:35 1008 29.77 837 24.72 2.3 36.1 87 0.3 32.5
16:40 1008 29.77 837 24.72 2.1 35.8 86 0.1 32.1
16:45 1008 29.77 837 24.72 1.8 35.2 88 -0.1 31.9
16:50 1008 29.77 837 24.72 1.6 34.9 89 -0.1 31.8
16:55 1008 29.77 838 24.75 1.5 34.6 89 -0.2 31.6
17:00 1008 29.77 838 24.75 1.3 34.3 90 -0.2 31.6
17:05 1008 29.77 838 24.75 1.4 34.5 90 -0.1 31.8
17:10 1008 29.77 837 24.72 1.6 34.8 90 0.1 32.1
17:15 1008 29.77 838 24.75 1.4 34.6 89 -0.2 31.6
17:20 1008 29.77 838 24.75 1 33.7 90 -0.5 31
17:25 1008 29.77 838 24.75 0.6 33.1 91 -0.6 30.8
17:30 1008 29.77 838 24.75 0.6 33.2 91 -0.6 30.9
17:35 1008 29.77 838 24.75 0.7 33.2 92 -0.6 31
17:40 1008 29.77 837 24.72 0.6 33.1 91 -0.6 30.9
17:45 1008 29.77 838 24.75 0.6 33.1 92 -0.6 31
17:50 1008 29.77 838 24.75 0.6 33.1 92 -0.6 30.9
17:55 1008 29.77 838 24.75 0.6 33.1 92 -0.5 31.1
18:00 1009 29.8 838 24.75 0.6 33.2 92 -0.5 31
18:05 1009 29.8 838 24.75 0.6 33.1 92 -0.6 31
18:10 1009 29.8 838 24.75 0.6 33.1 92 -0.6 31
18:15 1008 29.77 838 24.75 0.6 33 92 -0.6 30.9
18:20 1009 29.8 838 24.75 0.6 33 92 -0.6 31
18:25 1009 29.8 838 24.75 0.6 33 92 -0.6 30.9
18:30 1009 29.8 838 24.75 0.5 33 92 -0.6 30.9
18:35 1009 29.8 838 24.75 0.4 32.8 92 -0.7 30.7
18:40 1009 29.8 838 24.75 0.4 32.7 92 -0.7 30.7
18:45 1009 29.8 838 24.75 0.4 32.7 93 -0.7 30.8
18:50 1009 29.8 838 24.75 0.4 32.8 92 -0.6 30.8
18:55 1009 29.8 838 24.75 0.4 32.8 93 -0.6 30.8
19:00 1009 29.8 838 24.75 0.4 32.7 93 -0.7 30.8
19:05 1009 29.8 838 24.75 0.4 32.7 93 -0.7 30.8
19:10 1009 29.8 838 24.75 0.4 32.7 93 -0.7 30.7
19:15 1009 29.8 839 24.78 0.4 32.6 93 -0.7 30.7
19:20 1009 29.8 839 24.78 0.4 32.6 93 -0.7 30.7
19:25 1010 29.83 839 24.78 0.4 32.7 93 -0.7 30.7
19:30 1010 29.83 839 24.78 0.4 32.6 93 -0.7 30.7
19:35 1009 29.8 839 24.78 0.4 32.7 93 -0.7 30.8
19:40 1009 29.8 839 24.78 0.4 32.6 93 -0.7 30.8
19:45 1010 29.83 839 24.78 0.4 32.7 93 -0.6 30.8
19:50 1010 29.83 839 24.78 0.4 32.7 93 -0.7 30.8
19:55 1009 29.8 839 24.78 0.4 32.7 93 -0.7 30.8
20:00 1010 29.83 839 24.78 0.4 32.6 93 -0.7 30.7
20:05 1010 29.83 839 24.78 0.3 32.6 93 -0.7 30.8
20:10 1010 29.83 839 24.78 0.4 32.6 93 -0.7 30.8
20:15 1009 29.8 839 24.78 0.3 32.6 93 -0.7 30.7
20:20 1010 29.83 839 24.78 0.3 32.5 93 -0.8 30.6
20:25 1010 29.83 839 24.78 0.2 32.4 93 -0.8 30.5
20:30 1010 29.83 839 24.78 0.2 32.4 93 -0.8 30.5
20:35 1010 29.83 839 24.78 0.2 32.4 93 -0.9 30.5
20:40 1010 29.83 839 24.78 0.1 32.1 93 -1 30.3
20:45 1010 29.83 839 24.78 0.1 32.1 93 -0.9 30.3
20:50 1010 29.83 839 24.78 0.1 32.2 93 -0.9 30.5
20:55 1010 29.83 839 24.78 0.2 32.3 93 -0.8 30.6
21:00 1009 29.8 839 24.78 0.3 32.6 93 -0.6 30.9
21:05 1009 29.8 839 24.78 0.2 32.4 93 -0.7 30.7
21:10 1010 29.83 839 24.78 0.1 32.1 93 -0.9 30.4
21:15 1009 29.8 839 24.78 0 32.1 93 -0.9 30.4
21:20 1009 29.8 838 24.75 0 32 93 -0.9 30.3
21:25 1009 29.8 839 24.78 -0 31.9 94 -1 30.3
21:30 1010 29.83 839 24.78 -0 32 94 -0.9 30.3
21:35 1010 29.83 839 24.78 0 32 94 -0.9 30.4
21:40 1010 29.83 839 24.78 0 32.1 94 -0.9 30.4
21:45 1010 29.83 839 24.78 -0 32 94 -0.9 30.3
21:50 1010 29.83 839 24.78 -0 31.9 94 -0.9 30.4
21:55 1010 29.83 839 24.78 -0 31.9 94 -0.9 30.3
22:00 1010 29.83 839 24.78 -0 31.9 94 -0.9 30.4
22:05 1009 29.8 839 24.78 -0 32 94 -0.9 30.4
22:10 1009 29.8 838 24.75 -0 32 94 -0.9 30.4
22:15 1009 29.8 838 24.75 0 32.1 94 -0.8 30.5
22:20 1009 29.8 838 24.75 -0 31.9 94 -0.9 30.3
22:25 1009 29.8 838 24.75 -0.1 31.9 94 -1 30.3
22:30 1009 29.8 838 24.75 -0.1 31.8 94 -1 30.2
22:35 1009 29.8 838 24.75 -0.1 31.9 94 -0.9 30.3
22:40 1009 29.8 838 24.75 -0 31.9 94 -0.9 30.4
22:45 1009 29.8 839 24.78 -0 32 94 -0.9 30.4
22:50 1010 29.83 839 24.78 0 32 94 -0.9 30.4
22:55 1010 29.83 839 24.78 0.1 32.1 94 -0.8 30.5
23:00 1009 29.8 839 24.78 0.2 32.3 94 -0.7 30.7
23:05 1009 29.8 839 24.78 0.3 32.6 94 -0.6 30.9
23:10 1009 29.8 839 24.78 0.3 32.6 93 -0.7 30.8
23:15 1010 29.83 839 24.78 0.2 32.3 93 -0.8 30.5
23:20 1010 29.83 839 24.78 0.1 32.2 93 -0.9 30.4
23:25 1010 29.83 839 24.78 0.1 32.2 93 -0.9 30.4
23:30 1009 29.8 839 24.78 0.1 32.3 93 -0.9 30.5
23:35 1010 29.83 839 24.78 0.2 32.3 93 -0.8 30.5
23:40 1010 29.83 839 24.78 0.2 32.4 93 -0.8 30.5
23:45 1010 29.83 839 24.78 0.3 32.5 92 -0.8 30.6
23:50 1010 29.83 839 24.78 0.2 32.4 92 -0.9 30.3
23:55 1010 29.83 839 24.78 -0.1 31.9 92 -1.3 29.7
24:00 1010 29.83 839 24.78 -0.3 31.5 92 -1.4 29.5